Time;durP1;ratioP1;P1;durP2;ratioP2;P2;SDS_P1;SDS_P2;PMS_P1;PMS_P2;Temp;Humidity;BMP_temperature;BMP_pressure;BME280_temperature;BME280_humidity;BME280_pressure;Samples;Min_cycle;Max_cycle;Signal;HPM_P1;HPM_P2
2021/10/25 00:01:36;;;;;;;9.75;7.00;;;10.20;78.40;;;;;;4987636;28;20093;-83
2021/10/25 00:04:03;;;;;;;12.07;6.80;;;10.20;78.40;;;;;;4985909;28;20051;-82
2021/10/25 00:06:30;;;;;;;8.60;6.40;;;10.20;78.40;;;;;;4985775;28;20491;-83
2021/10/25 00:08:56;;;;;;;12.23;7.15;;;10.20;78.40;;;;;;4985368;28;20566;-83
2021/10/25 00:11:23;;;;;;;10.80;6.82;;;10.20;78.40;;;;;;4988559;28;20470;-83
2021/10/25 00:13:50;;;;;;;12.48;6.57;;;10.20;78.50;;;;;;4988311;28;20100;-83
2021/10/25 00:16:17;;;;;;;10.25;6.75;;;10.20;78.50;;;;;;4986657;28;20046;-83
2021/10/25 00:18:44;;;;;;;12.05;6.78;;;10.20;78.50;;;;;;4985691;28;20054;-83
2021/10/25 00:21:11;;;;;;;13.63;7.10;;;10.20;78.50;;;;;;4983956;28;20104;-83
2021/10/25 00:23:38;;;;;;;11.60;7.32;;;10.20;78.50;;;;;;4986186;28;20054;-83
2021/10/25 00:26:06;;;;;;;9.88;6.60;;;10.20;78.50;;;;;;4988555;28;20039;-83
2021/10/25 00:28:33;;;;;;;11.73;6.80;;;10.20;78.50;;;;;;4986677;28;20057;-83
2021/10/25 00:31:00;;;;;;;10.35;6.75;;;10.20;78.50;;;;;;4985341;28;20054;-83
2021/10/25 00:33:27;;;;;;;10.50;6.93;;;10.20;78.50;;;;;;4985375;28;20054;-83
2021/10/25 00:35:54;;;;;;;11.13;7.05;;;10.20;78.50;;;;;;4988557;28;20042;-83
2021/10/25 00:38:21;;;;;;;11.32;7.28;;;10.20;78.50;;;;;;4972443;28;20054;-83
2021/10/25 00:40:48;;;;;;;9.73;6.55;;;10.20;78.50;;;;;;4988070;28;20101;-82
2021/10/25 00:43:15;;;;;;;10.93;6.82;;;10.20;78.50;;;;;;4986209;28;20443;-82
2021/10/25 00:45:42;;;;;;;11.05;6.60;;;10.20;78.50;;;;;;4985310;28;20109;-83
2021/10/25 00:48:10;;;;;;;9.18;6.90;;;10.20;78.50;;;;;;4985163;28;20076;-83
2021/10/25 00:50:38;;;;;;;11.70;6.43;;;10.20;78.60;;;;;;4986306;28;20051;-83
2021/10/25 00:53:06;;;;;;;13.30;7.20;;;10.20;78.50;;;;;;4988573;28;20128;-83
2021/10/25 00:55:33;;;;;;;10.90;6.80;;;10.20;78.50;;;;;;4987849;28;20100;-83
2021/10/25 00:58:01;;;;;;;12.05;6.68;;;10.20;78.60;;;;;;4989194;28;20046;-83
2021/10/25 01:00:29;;;;;;;11.07;6.57;;;10.20;78.50;;;;;;4987419;28;20120;-83
2021/10/25 01:02:56;;;;;;;11.63;7.20;;;10.20;78.50;;;;;;4989074;28;20050;-83
2021/10/25 01:05:23;;;;;;;10.23;6.63;;;10.20;78.60;;;;;;4990176;28;20050;-82
2021/10/25 01:07:53;;;;;;;11.23;6.82;;;10.20;78.70;;;;;;4991374;28;20050;-83
2021/10/25 01:10:20;;;;;;;11.27;7.05;;;10.20;78.80;;;;;;4990335;28;20057;-83
2021/10/25 01:12:50;;;;;;;10.52;7.20;;;10.20;78.90;;;;;;4988846;28;20404;-83
2021/10/25 01:15:17;;;;;;;10.55;7.45;;;10.20;79.00;;;;;;4988968;28;20108;-83
2021/10/25 01:17:45;;;;;;;10.30;6.75;;;10.20;79.10;;;;;;4988893;28;20042;-83
2021/10/25 01:20:11;;;;;;;10.55;6.75;;;10.20;79.20;;;;;;4977590;28;20054;-82
2021/10/25 01:22:38;;;;;;;10.35;7.18;;;10.20;79.20;;;;;;4990490;28;20050;-82
2021/10/25 01:25:06;;;;;;;12.00;7.45;;;10.20;79.30;;;;;;4988710;28;20527;-81
2021/10/25 01:27:33;;;;;;;9.52;7.30;;;10.20;79.40;;;;;;4988636;28;20566;-81
2021/10/25 01:29:59;;;;;;;12.75;8.10;;;10.20;79.50;;;;;;4988520;28;20051;-81
2021/10/25 01:32:26;;;;;;;9.55;6.70;;;10.20;79.60;;;;;;4991206;28;20053;-81
2021/10/25 01:34:53;;;;;;;14.98;8.60;;;10.20;79.70;;;;;;4991203;28;20050;-81
2021/10/25 01:37:21;;;;;;;10.95;7.30;;;10.20;79.80;;;;;;4989814;28;20057;-81
2021/10/25 01:39:48;;;;;;;10.38;7.38;;;10.10;79.90;;;;;;4988513;28;20054;-81
2021/10/25 01:44:49;;;;;;;10.13;7.05;;;10.20;80.10;;;;;;4197673;23;20082;-83
2021/10/25 01:47:16;;;;;;;10.60;7.53;;;10.10;80.20;;;;;;4961337;28;20055;-84
2021/10/25 01:49:43;;;;;;;15.45;7.85;;;10.10;80.30;;;;;;4967498;28;20384;-84
2021/10/25 01:52:12;;;;;;;13.48;8.40;;;10.10;80.30;;;;;;4970228;28;20051;-85
2021/10/25 01:54:40;;;;;;;13.52;8.25;;;10.10;80.40;;;;;;4970153;28;20039;-85
2021/10/25 01:57:08;;;;;;;11.30;7.35;;;10.10;80.50;;;;;;4973316;28;20055;-85
2021/10/25 01:59:35;;;;;;;12.30;7.20;;;10.00;80.60;;;;;;4972528;28;20051;-84
2021/10/25 02:02:03;;;;;;;11.38;7.78;;;10.00;80.70;;;;;;4971193;28;20051;-84
2021/10/25 02:04:31;;;;;;;11.18;6.95;;;10.00;80.80;;;;;;4969997;28;20055;-84
2021/10/25 02:06:58;;;;;;;10.55;7.32;;;10.00;80.90;;;;;;4969240;28;20051;-84
2021/10/25 02:09:25;;;;;;;11.75;7.30;;;10.00;80.90;;;;;;4970611;28;20581;-84
2021/10/25 02:11:52;;;;;;;12.60;8.02;;;10.00;81.00;;;;;;4973838;28;20653;-84
2021/10/25 02:14:19;;;;;;;11.90;7.47;;;10.00;81.10;;;;;;4971193;28;20055;-83
2021/10/25 02:16:46;;;;;;;13.68;8.05;;;10.00;81.10;;;;;;4969819;28;20054;-85
2021/10/25 02:19:13;;;;;;;12.57;7.55;;;10.00;81.20;;;;;;4969812;28;20523;-84
2021/10/25 02:21:41;;;;;;;15.13;7.75;;;10.00;81.30;;;;;;4969694;28;20062;-83
2021/10/25 02:24:10;;;;;;;11.15;7.75;;;10.00;81.40;;;;;;4971071;28;20094;-84
2021/10/25 02:26:37;;;;;;;11.63;7.28;;;9.90;81.50;;;;;;4972343;28;20050;-83
2021/10/25 02:29:05;;;;;;;13.98;7.95;;;10.00;81.60;;;;;;4970546;28;20534;-84
2021/10/25 02:31:32;;;;;;;10.30;7.28;;;9.90;81.70;;;;;;4969598;28;20047;-84
2021/10/25 02:33:59;;;;;;;11.18;7.22;;;9.90;81.80;;;;;;4969432;28;20101;-83
2021/10/25 02:36:26;;;;;;;14.00;7.85;;;10.00;81.80;;;;;;4970229;28;20098;-86
2021/10/25 02:38:54;;;;;;;14.70;8.27;;;10.00;81.90;;;;;;4973470;28;20072;-86
2021/10/25 02:41:21;;;;;;;11.07;8.25;;;10.00;82.00;;;;;;4970768;28;20057;-85
2021/10/25 02:43:48;;;;;;;12.10;7.70;;;10.00;82.10;;;;;;4969031;28;20518;-85
2021/10/25 02:46:16;;;;;;;12.13;7.70;;;10.00;82.20;;;;;;4969246;28;20043;-85
2021/10/25 02:48:44;;;;;;;14.13;7.40;;;10.00;82.20;;;;;;4969064;28;20459;-85
2021/10/25 02:51:15;;;;;;;12.18;7.88;;;10.00;82.30;;;;;;4971839;28;20050;-86
2021/10/25 02:53:42;;;;;;;11.43;7.85;;;10.00;82.30;;;;;;4971862;28;20066;-87
2021/10/25 02:56:09;;;;;;;11.25;8.10;;;10.00;82.30;;;;;;4959687;28;20047;-86
2021/10/25 02:58:35;;;;;;;9.63;7.68;;;10.00;82.40;;;;;;4965259;28;20047;-86
2021/10/25 03:01:03;;;;;;;11.80;8.18;;;10.00;82.50;;;;;;4969005;28;20058;-86
2021/10/25 03:03:30;;;;;;;10.85;7.68;;;10.00;82.50;;;;;;4967678;28;20043;-86
2021/10/25 03:05:57;;;;;;;12.20;8.20;;;10.00;82.50;;;;;;4957728;28;20051;-85
2021/10/25 03:08:24;;;;;;;13.38;8.23;;;10.00;82.60;;;;;;4970932;28;20499;-86
2021/10/25 03:10:51;;;;;;;12.38;8.70;;;10.00;82.70;;;;;;4968435;28;20062;-85
2021/10/25 03:13:18;;;;;;;9.75;7.85;;;10.00;82.70;;;;;;4968723;28;20047;-85
2021/10/25 03:15:46;;;;;;;14.43;8.07;;;10.00;82.70;;;;;;4968670;28;20066;-86
2021/10/25 03:18:14;;;;;;;13.63;7.90;;;10.00;82.80;;;;;;4970858;28;20531;-84
2021/10/25 03:20:41;;;;;;;11.88;8.18;;;10.00;82.80;;;;;;4970661;28;20418;-85
2021/10/25 03:23:08;;;;;;;10.27;7.97;;;10.00;82.90;;;;;;4959475;28;20540;-85
2021/10/25 03:25:35;;;;;;;12.73;7.93;;;10.00;82.90;;;;;;4964385;28;20057;-84
2021/10/25 03:28:02;;;;;;;14.02;8.25;;;10.00;83.00;;;;;;4968479;28;20042;-85
2021/10/25 03:30:29;;;;;;;11.23;8.02;;;10.00;83.00;;;;;;4968766;28;20055;-85
2021/10/25 03:32:57;;;;;;;10.75;8.05;;;10.00;83.10;;;;;;4957317;28;20051;-85
2021/10/25 03:35:23;;;;;;;14.70;8.85;;;10.00;83.10;;;;;;4955157;28;20051;-86
2021/10/25 03:37:51;;;;;;;10.73;7.82;;;10.00;83.10;;;;;;4966541;28;20054;-85
2021/10/25 03:40:18;;;;;;;10.18;7.35;;;10.00;83.20;;;;;;4967904;28;20062;-85
2021/10/25 03:42:48;;;;;;;10.48;8.07;;;10.00;83.20;;;;;;4966775;28;20117;-85
2021/10/25 03:45:35;;;;;;;15.73;8.70;;;10.00;83.30;;;;;;4970411;28;20569;-85
2021/10/25 03:50:33;;;;;;;13.52;9.15;;;10.00;83.30;;;;;;4970450;28;20455;-84
2021/10/25 03:53:12;;;;;;;11.57;8.13;;;10.00;83.30;;;;;;4968775;28;20046;-86
2021/10/25 03:56:02;;;;;;;13.70;8.68;;;10.00;83.40;;;;;;4967658;28;20059;-85
2021/10/25 04:28:28;;;;;;;13.82;10.30;;;10.10;83.80;;;;;;4967548;28;20050;-87
2021/10/25 04:30:57;;;;;;;13.90;9.98;;;10.00;83.80;;;;;;4967272;28;20046;-86
2021/10/25 04:33:24;;;;;;;15.93;9.57;;;10.00;83.90;;;;;;4968444;28;20047;-85
2021/10/25 04:35:51;;;;;;;15.60;9.52;;;10.10;83.90;;;;;;4971249;28;20055;-86
2021/10/25 04:38:19;;;;;;;11.77;9.13;;;10.10;83.90;;;;;;4968974;28;20050;-85
2021/10/25 04:40:46;;;;;;;15.90;10.35;;;10.10;83.90;;;;;;4967459;28;20051;-86
2021/10/25 04:43:15;;;;;;;17.40;10.50;;;10.10;84.00;;;;;;4967207;28;20109;-86
2021/10/25 04:45:43;;;;;;;15.10;9.98;;;10.10;84.00;;;;;;4967410;28;20058;-87
2021/10/25 04:48:10;;;;;;;15.63;10.60;;;10.10;84.00;;;;;;4970284;28;20066;-84
2021/10/25 04:50:37;;;;;;;13.00;9.25;;;10.10;84.00;;;;;;4970144;28;20055;-86
2021/10/25 04:53:05;;;;;;;12.40;9.10;;;10.10;84.00;;;;;;4968250;28;20109;-87
2021/10/25 04:55:32;;;;;;;11.32;8.90;;;10.10;84.10;;;;;;4967192;28;20408;-87
2021/10/25 04:57:58;;;;;;;11.63;9.15;;;10.10;84.00;;;;;;4967334;28;20050;-86
2021/10/25 05:00:25;;;;;;;15.15;9.57;;;10.10;84.00;;;;;;4966676;28;20043;-86
2021/10/25 05:02:54;;;;;;;13.32;9.45;;;10.10;84.10;;;;;;4971216;28;20592;-86
2021/10/25 05:05:22;;;;;;;16.13;9.90;;;10.20;84.10;;;;;;4969070;28;20561;-86
2021/10/25 05:07:49;;;;;;;13.02;9.02;;;10.20;84.10;;;;;;4966980;28;20051;-88
2021/10/25 05:10:16;;;;;;;13.07;9.70;;;10.20;84.10;;;;;;4967265;28;20051;-87
2021/10/25 05:12:43;;;;;;;14.95;10.65;;;10.20;84.10;;;;;;4967234;28;20054;-85
2021/10/25 05:15:10;;;;;;;13.25;9.90;;;10.20;84.10;;;;;;4969982;28;20051;-86
2021/10/25 05:17:37;;;;;;;15.55;9.63;;;10.20;84.10;;;;;;4969931;28;20059;-85
2021/10/25 05:20:05;;;;;;;15.10;10.30;;;10.20;84.10;;;;;;4968297;28;20097;-87
2021/10/25 05:22:32;;;;;;;14.40;10.20;;;10.20;84.10;;;;;;4966950;28;20054;-87
2021/10/25 05:24:59;;;;;;;14.32;11.00;;;10.20;84.20;;;;;;4966925;28;20043;-87
2021/10/25 05:27:26;;;;;;;14.23;9.73;;;10.20;84.10;;;;;;4967765;28;20455;-85
2021/10/25 05:29:53;;;;;;;15.43;11.77;;;10.20;84.20;;;;;;4971177;28;20041;-86
2021/10/25 05:32:20;;;;;;;14.30;10.15;;;10.20;84.20;;;;;;4968996;28;20106;-86
2021/10/25 05:34:47;;;;;;;14.38;11.23;;;10.20;84.20;;;;;;4971182;28;20043;-86
2021/10/25 05:37:14;;;;;;;15.48;10.82;;;10.20;84.30;;;;;;4966429;28;20043;-87
2021/10/25 05:39:41;;;;;;;15.38;11.23;;;10.20;84.30;;;;;;4965420;28;20051;-86
2021/10/25 05:42:09;;;;;;;14.15;10.93;;;10.20;84.30;;;;;;4970343;28;20058;-86
2021/10/25 05:44:37;;;;;;;12.93;10.13;;;10.30;84.30;;;;;;4973084;28;20113;-85
2021/10/25 05:47:05;;;;;;;14.38;11.35;;;10.30;84.30;;;;;;4971543;28;20047;-85
2021/10/25 05:49:32;;;;;;;17.25;12.00;;;10.20;84.40;;;;;;4970315;28;20121;-87
2021/10/25 05:51:59;;;;;;;16.55;11.40;;;10.30;84.40;;;;;;4969956;28;20050;-86
2021/10/25 05:54:27;;;;;;;14.75;12.00;;;10.30;84.40;;;;;;4970933;28;20099;-84
2021/10/25 05:56:54;;;;;;;18.00;12.27;;;10.20;84.40;;;;;;4974215;28;20046;-86
2021/10/25 05:59:25;;;;;;;18.17;12.48;;;10.30;84.50;;;;;;4971975;28;20450;-86
2021/10/25 06:02:08;;;;;;;14.00;11.13;;;10.30;84.50;;;;;;4970274;28;20463;-86
2021/10/25 06:04:36;;;;;;;15.60;12.25;;;10.30;84.50;;;;;;4969724;28;20050;-86
2021/10/25 06:07:03;;;;;;;17.25;11.73;;;10.30;84.50;;;;;;4970062;28;20043;-86
2021/10/25 06:09:34;;;;;;;15.38;11.95;;;10.30;84.50;;;;;;4970153;28;20137;-86
2021/10/25 06:12:06;;;;;;;17.15;12.60;;;10.30;84.50;;;;;;4974011;28;20054;-88
2021/10/25 06:14:38;;;;;;;20.13;12.80;;;10.30;84.50;;;;;;4972520;28;20058;-86
2021/10/25 06:17:18;;;;;;;23.52;14.88;;;10.30;84.50;;;;;;4971081;28;20647;-86
2021/10/25 06:19:45;;;;;;;16.50;13.45;;;10.30;84.50;;;;;;4967904;28;20577;-86
2021/10/25 06:22:13;;;;;;;18.20;13.27;;;10.30;84.50;;;;;;4969738;28;20419;-85
2021/10/25 06:24:40;;;;;;;16.83;13.60;;;10.40;84.60;;;;;;4969544;28;20401;-86
2021/10/25 06:27:07;;;;;;;18.65;13.60;;;10.40;84.60;;;;;;4972986;28;20506;-86
2021/10/25 06:29:34;;;;;;;20.10;14.30;;;10.30;84.60;;;;;;4972377;28;20059;-85
2021/10/25 06:32:01;;;;;;;19.15;12.65;;;10.40;84.60;;;;;;4956286;28;20083;-86
2021/10/25 06:34:34;;;;;;;19.77;13.90;;;10.40;84.60;;;;;;4965591;28;20058;-87
2021/10/25 06:37:01;;;;;;;21.38;14.27;;;10.40;84.60;;;;;;4964637;28;20455;-86
2021/10/25 06:39:38;;;;;;;20.02;13.63;;;10.40;84.60;;;;;;4971235;28;20105;-86
2021/10/25 06:42:06;;;;;;;18.75;14.05;;;10.40;84.60;;;;;;4956723;28;20058;-86
2021/10/25 06:47:14;;;;;;;18.83;14.13;;;10.40;84.60;;;;;;4960106;28;20598;-86
2021/10/25 06:49:40;;;;;;;19.52;14.32;;;10.40;84.60;;;;;;4959653;28;20117;-85
2021/10/25 06:52:07;;;;;;;20.88;14.77;;;10.30;84.60;;;;;;4960083;28;20397;-85
2021/10/25 06:54:34;;;;;;;21.33;13.55;;;10.30;84.60;;;;;;4959724;28;20050;-86
2021/10/25 06:57:01;;;;;;;17.90;13.45;;;10.40;84.60;;;;;;4955914;28;20043;-85
2021/10/25 06:59:28;;;;;;;21.30;14.05;;;10.40;84.60;;;;;;4958937;28;20062;-87
2021/10/25 07:01:56;;;;;;;21.35;14.35;;;10.30;84.60;;;;;;4961790;28;20051;-87
2021/10/25 07:04:23;;;;;;;20.92;14.02;;;10.40;84.60;;;;;;4959554;28;20138;-85
2021/10/25 07:06:52;;;;;;;21.73;14.93;;;10.40;84.60;;;;;;4959949;28;20050;-87
2021/10/25 07:09:20;;;;;;;22.67;14.77;;;10.40;84.70;;;;;;4957575;28;20055;-87
2021/10/25 07:11:47;;;;;;;21.35;14.20;;;10.40;84.70;;;;;;4968465;28;20046;-86
2021/10/25 07:14:22;;;;;;;17.73;14.77;;;10.30;84.70;;;;;;4959991;28;20055;-86
2021/10/25 08:11:13;;;;;;;23.50;16.88;;;10.40;85.10;;;;;;4971306;28;20058;-87
2021/10/25 08:13:45;;;;;;;25.70;16.60;;;10.40;85.10;;;;;;4960530;28;20144;-86
2021/10/25 08:21:16;;;;;;;26.73;18.85;;;10.50;85.30;;;;;;4956357;28;20043;-86
2021/10/25 08:23:43;;;;;;;30.35;20.77;;;10.50;85.30;;;;;;4954702;28;20051;-86
2021/10/25 08:26:11;;;;;;;31.88;19.83;;;10.60;85.40;;;;;;4958040;28;20055;-87
2021/10/25 08:28:39;;;;;;;24.58;17.88;;;10.60;85.40;;;;;;4958607;28;20048;-86
2021/10/25 08:31:09;;;;;;;29.70;19.92;;;10.60;85.50;;;;;;4958321;28;20055;-86
2021/10/25 08:36:36;;;;;;;22.20;16.65;;;10.70;85.50;;;;;;4955272;28;20070;-87
2021/10/25 08:41:48;;;;;;;31.17;19.17;;;10.80;85.60;;;;;;4954406;28;27090;-87
2021/10/25 08:44:16;;;;;;;27.70;16.80;;;10.80;85.60;;;;;;4957466;28;20055;-86
2021/10/25 08:46:49;;;;;;;21.48;16.75;;;10.90;85.60;;;;;;4959468;28;20456;-87
2021/10/25 08:49:18;;;;;;;17.75;15.05;;;10.90;85.60;;;;;;4958156;28;20054;-88
2021/10/25 08:51:45;;;;;;;21.45;14.75;;;10.90;85.60;;;;;;4958130;28;20057;-87
2021/10/25 08:54:12;;;;;;;21.10;14.40;;;10.90;85.60;;;;;;4969060;28;20046;-88
2021/10/25 08:56:40;;;;;;;23.77;14.98;;;10.90;85.60;;;;;;4955898;28;20059;-87
2021/10/25 08:59:07;;;;;;;18.80;13.77;;;10.90;85.70;;;;;;4957289;28;20054;-86
2021/10/25 09:01:34;;;;;;;20.85;13.85;;;10.90;85.60;;;;;;4957755;28;20055;-87
2021/10/25 09:04:07;;;;;;;18.60;13.77;;;11.00;85.70;;;;;;4962233;28;20046;-86
2021/10/25 09:06:35;;;;;;;18.42;13.57;;;11.00;85.70;;;;;;4968259;28;20082;-87
2021/10/25 09:09:06;;;;;;;20.65;14.13;;;11.00;85.70;;;;;;4952785;28;20051;-87
2021/10/25 09:11:34;;;;;;;18.75;13.30;;;11.00;85.70;;;;;;4955283;28;20051;-86
2021/10/25 09:14:01;;;;;;;23.00;12.63;;;11.10;85.70;;;;;;4957972;28;20055;-86
2021/10/25 09:16:28;;;;;;;21.70;12.77;;;11.10;85.70;;;;;;4958886;28;20074;-86
2021/10/25 09:18:55;;;;;;;17.23;13.23;;;11.10;85.70;;;;;;4960223;28;20534;-88
2021/10/25 09:21:33;;;;;;;17.25;12.30;;;11.20;85.80;;;;;;4958997;28;20077;-87
2021/10/25 09:24:00;;;;;;;16.92;12.18;;;11.20;85.80;;;;;;4956024;28;20052;-87
2021/10/25 09:26:31;;;;;;;17.23;12.60;;;11.20;85.80;;;;;;4960018;28;20062;-86
2021/10/25 09:29:03;;;;;;;17.75;12.50;;;11.20;85.80;;;;;;4959372;28;20059;-87
2021/10/25 09:31:34;;;;;;;15.10;11.68;;;11.20;85.80;;;;;;4960042;28;20047;-86
2021/10/25 09:34:06;;;;;;;19.08;12.05;;;11.20;85.80;;;;;;4959815;28;20047;-87
2021/10/25 09:37:09;;;;;;;19.27;11.77;;;11.20;85.80;;;;;;4960250;28;20050;-87
2021/10/25 09:39:50;;;;;;;;;;;11.30;85.80;;;;;;4959397;28;20109;-88
2021/10/25 09:45:32;;;;;;;13.60;10.30;;;11.40;85.80;;;;;;4955696;28;20114;-87
2021/10/25 09:51:13;;;;;;;14.90;10.45;;;11.40;85.80;;;;;;4957438;28;20114;-88
2021/10/25 09:54:00;;;;;;;16.50;10.95;;;11.40;85.80;;;;;;4956921;28;20078;-87
2021/10/25 09:56:33;;;;;;;16.05;10.35;;;11.40;85.80;;;;;;4959025;28;20106;-89
2021/10/25 09:59:09;;;;;;;14.47;9.47;;;11.50;85.80;;;;;;4960073;28;20526;-88
2021/10/25 10:01:38;;;;;;;13.40;9.85;;;11.50;85.80;;;;;;4959386;28;20047;-88
2021/10/25 10:04:07;;;;;;;16.90;10.10;;;11.50;85.80;;;;;;4959237;28;20074;-88
2021/10/25 10:06:34;;;;;;;11.88;8.65;;;11.50;85.70;;;;;;4959546;28;20054;-87
2021/10/25 10:09:02;;;;;;;13.02;9.52;;;11.50;85.70;;;;;;4956009;28;20058;-88
2021/10/25 10:11:29;;;;;;;12.45;9.23;;;11.50;85.70;;;;;;4958085;28;20055;-89
2021/10/25 10:13:56;;;;;;;14.80;9.90;;;11.60;85.60;;;;;;4961399;28;20074;-88
2021/10/25 10:16:24;;;;;;;12.80;9.90;;;11.60;85.70;;;;;;4959257;28;20055;-88
2021/10/25 10:19:04;;;;;;;15.85;10.52;;;11.60;85.80;;;;;;4960759;28;20089;-88
2021/10/25 10:21:32;;;;;;;20.95;10.30;;;11.80;85.90;;;;;;4959306;28;20047;-88
2021/10/25 10:24:09;;;;;;;17.60;10.27;;;11.80;86.00;;;;;;4954984;28;20097;-88
2021/10/25 10:26:38;;;;;;;14.90;9.43;;;11.90;86.10;;;;;;4969803;28;20054;-87
2021/10/25 10:29:12;;;;;;;16.15;9.40;;;12.00;86.20;;;;;;4960421;28;20128;-89
2021/10/25 10:31:39;;;;;;;15.98;8.80;;;12.10;86.30;;;;;;4959024;28;20058;-87
2021/10/25 10:34:13;;;;;;;13.60;9.13;;;12.20;86.30;;;;;;4960397;28;20049;-86
2021/10/25 10:36:54;;;;;;;12.07;7.68;;;12.40;86.30;;;;;;4958813;28;20570;-87
2021/10/25 10:39:27;;;;;;;12.45;7.40;;;12.50;86.30;;;;;;4957612;28;20050;-87
2021/10/25 10:41:58;;;;;;;13.63;7.53;;;12.60;86.20;;;;;;4954707;28;20078;-88
2021/10/25 10:44:27;;;;;;;12.73;6.80;;;12.80;86.20;;;;;;4958683;28;20508;-86
2021/10/25 10:46:59;;;;;;;13.32;7.30;;;12.90;86.10;;;;;;4959166;28;20059;-86
2021/10/25 10:49:31;;;;;;;11.13;6.53;;;13.00;86.00;;;;;;4958822;28;20142;-86
2021/10/25 10:52:16;;;;;;;15.27;6.32;;;13.20;85.90;;;;;;4958982;28;20055;-87
2021/10/25 10:55:05;;;;;;;13.80;6.30;;;13.30;85.70;;;;;;4959788;28;20042;-87
2021/10/25 11:00:21;;;;;;;10.13;6.55;;;13.50;85.30;;;;;;4957508;28;20047;-87
2021/10/25 11:02:55;;;;;;;10.73;6.55;;;13.60;85.00;;;;;;4955345;28;20055;-87
2021/10/25 11:05:35;;;;;;;11.52;7.72;;;13.60;84.80;;;;;;4958516;28;20066;-86
2021/10/25 11:08:20;;;;;;;16.15;8.10;;;13.60;84.50;;;;;;4960296;28;20059;-86
2021/10/25 11:11:07;;;;;;;11.32;6.70;;;13.70;84.30;;;;;;4957704;28;20073;-86
2021/10/25 11:13:44;;;;;;;15.05;8.15;;;13.70;84.00;;;;;;4959848;28;20058;-85
2021/10/25 11:16:22;;;;;;;11.93;7.72;;;13.70;83.80;;;;;;4958146;28;20058;-88
2021/10/25 11:18:55;;;;;;;13.10;7.68;;;13.70;83.70;;;;;;4958245;28;20078;-86
2021/10/25 11:21:25;;;;;;;16.33;8.45;;;13.70;83.50;;;;;;4957083;28;20046;-86
2021/10/25 11:23:55;;;;;;;14.20;6.95;;;13.70;83.30;;;;;;4969932;28;20066;-88
2021/10/25 11:26:43;;;;;;;14.80;7.43;;;13.70;83.20;;;;;;4958028;28;20503;-88
2021/10/25 11:29:20;;;;;;;11.60;7.82;;;13.70;83.10;;;;;;4969784;28;20522;-86
2021/10/25 11:31:59;;;;;;;12.70;8.68;;;13.70;83.00;;;;;;4959037;28;20069;-86
2021/10/25 11:34:34;;;;;;;12.15;7.47;;;13.60;82.80;;;;;;4959342;28;20062;-88
2021/10/25 11:37:04;;;;;;;15.63;7.25;;;13.60;82.70;;;;;;4957625;28;20076;-86
2021/10/25 11:39:40;;;;;;;10.85;7.43;;;13.60;82.70;;;;;;4957148;28;20047;-86
2021/10/25 11:42:28;;;;;;;13.50;8.25;;;13.60;82.60;;;;;;4954169;28;20114;-86
2021/10/25 11:44:59;;;;;;;17.67;7.95;;;13.60;82.50;;;;;;4954793;28;20055;-86
2021/10/25 11:47:33;;;;;;;10.27;6.55;;;13.60;82.50;;;;;;4968591;28;20051;-88
2021/10/25 11:50:03;;;;;;;12.15;7.25;;;13.50;82.50;;;;;;4958316;28;20534;-85
2021/10/25 11:52:43;;;;;;;13.55;8.02;;;13.50;82.50;;;;;;4957336;28;20058;-86
2021/10/25 11:55:12;;;;;;;14.13;8.27;;;13.50;82.40;;;;;;4957560;28;20106;-87
2021/10/25 11:57:53;;;;;;;13.25;7.30;;;13.50;82.40;;;;;;4957334;28;20073;-86
2021/10/25 12:00:21;;;;;;;10.52;7.03;;;13.50;82.40;;;;;;4955858;28;20424;-86
2021/10/25 12:02:48;;;;;;;12.00;7.00;;;13.50;82.40;;;;;;4954368;28;20074;-86
2021/10/25 12:05:25;;;;;;;12.88;7.72;;;13.50;82.40;;;;;;4957615;28;20126;-86
2021/10/25 12:07:55;;;;;;;15.13;8.45;;;13.50;82.40;;;;;;4957110;28;20055;-86
2021/10/25 12:10:26;;;;;;;12.95;7.57;;;13.50;82.40;;;;;;4964239;28;20062;-87
2021/10/25 12:13:05;;;;;;;13.60;8.00;;;13.50;82.40;;;;;;4965187;28;20480;-85
2021/10/25 12:15:34;;;;;;;13.40;7.38;;;13.50;82.50;;;;;;4957216;28;20109;-86
2021/10/25 12:18:06;;;;;;;14.63;8.15;;;13.50;82.50;;;;;;4953206;28;20117;-86
2021/10/25 12:20:40;;;;;;;16.80;8.70;;;13.50;82.60;;;;;;4954834;28;20054;-86
2021/10/25 12:23:22;;;;;;;18.00;8.53;;;13.50;82.60;;;;;;4956708;28;20058;-86
2021/10/25 12:25:55;;;;;;;14.85;9.40;;;13.50;82.60;;;;;;4956893;28;20047;-87
2021/10/25 12:28:23;;;;;;;20.13;7.97;;;13.50;82.60;;;;;;4957271;28;20043;-87
2021/10/25 12:31:07;;;;;;;12.63;7.85;;;13.50;82.60;;;;;;4957209;28;20103;-87
2021/10/25 12:33:37;;;;;;;13.02;7.63;;;13.50;82.60;;;;;;4956923;28;20046;-86
2021/10/25 12:36:18;;;;;;;13.88;7.63;;;13.50;82.60;;;;;;4953228;28;20428;-86
2021/10/25 12:38:50;;;;;;;16.30;9.73;;;13.50;82.60;;;;;;4954168;28;20083;-85
2021/10/25 12:41:17;;;;;;;13.40;7.82;;;13.50;82.50;;;;;;4956858;28;20126;-87
2021/10/25 12:43:45;;;;;;;14.05;7.85;;;13.50;82.50;;;;;;4956710;28;20539;-86
2021/10/25 12:46:19;;;;;;;15.95;7.78;;;13.50;82.50;;;;;;4956940;28;20055;-86
2021/10/25 12:48:47;;;;;;;;;;;13.50;82.50;;;;;;4957037;28;20082;-87
2021/10/25 12:51:16;;;;;;;17.92;9.43;;;13.50;82.50;;;;;;4954622;28;19922;-86
2021/10/25 12:53:47;;;;;;;13.88;7.47;;;13.50;82.50;;;;;;4958533;28;20047;-87
2021/10/25 12:56:24;;;;;;;11.55;8.15;;;13.40;82.50;;;;;;4960750;28;20106;-87
2021/10/25 12:59:08;;;;;;;13.82;8.63;;;13.50;82.60;;;;;;4960397;28;20055;-87
2021/10/25 13:01:35;;;;;;;12.80;7.85;;;13.50;82.60;;;;;;4960650;28;20107;-86
2021/10/25 13:04:05;;;;;;;15.52;9.27;;;13.50;82.60;;;;;;4960463;28;20106;-86
2021/10/25 13:06:34;;;;;;;13.18;8.15;;;13.50;82.60;;;;;;4961760;28;20042;-86
2021/10/25 13:09:08;;;;;;;15.55;8.32;;;13.50;82.60;;;;;;4956735;28;20047;-86
2021/10/25 13:11:36;;;;;;;11.75;7.93;;;13.50;82.60;;;;;;4958415;28;20058;-86
2021/10/25 13:14:05;;;;;;;13.60;7.93;;;13.50;82.60;;;;;;4960396;28;20055;-87
2021/10/25 13:19:11;;;;;;;12.63;7.97;;;13.50;82.70;;;;;;4961551;28;20070;-86
2021/10/25 13:21:39;;;;;;;11.80;7.80;;;13.50;82.70;;;;;;4959795;28;20577;-87
2021/10/25 13:24:08;;;;;;;13.98;7.95;;;13.50;82.70;;;;;;4956998;28;20051;-86
2021/10/25 13:26:42;;;;;;;11.05;7.78;;;13.60;82.70;;;;;;4957850;28;20055;-85
2021/10/25 13:29:09;;;;;;;14.27;8.02;;;13.60;82.70;;;;;;4960011;28;20057;-86
2021/10/25 13:31:36;;;;;;;13.27;8.15;;;13.60;82.80;;;;;;4960059;28;20055;-87
2021/10/25 13:34:03;;;;;;;13.65;8.43;;;13.60;82.80;;;;;;4959581;28;20047;-86
2021/10/25 13:36:30;;;;;;;14.68;9.27;;;13.70;82.80;;;;;;4959734;28;20049;-86
2021/10/25 13:39:10;;;;;;;11.40;8.23;;;13.70;82.80;;;;;;4956862;28;20047;-85
2021/10/25 13:41:37;;;;;;;14.73;9.15;;;13.80;82.90;;;;;;4957764;28;20091;-85
2021/10/25 13:44:05;;;;;;;14.32;9.05;;;13.80;82.90;;;;;;4960216;28;20087;-86
2021/10/25 13:46:33;;;;;;;18.50;8.70;;;13.90;82.90;;;;;;4961417;28;20052;-86
2021/10/25 13:49:00;;;;;;;16.63;8.20;;;13.90;82.90;;;;;;4959573;28;20047;-86
2021/10/25 13:51:27;;;;;;;10.93;8.00;;;13.90;82.80;;;;;;4959117;28;20057;-87
2021/10/25 13:53:54;;;;;;;12.73;8.07;;;13.90;82.80;;;;;;4956099;28;20069;-88
2021/10/25 13:56:21;;;;;;;11.93;7.78;;;13.90;82.70;;;;;;4972891;28;20049;-86
2021/10/25 13:58:49;;;;;;;13.93;8.05;;;13.90;82.70;;;;;;4960231;28;20051;-86
2021/10/25 14:01:16;;;;;;;12.93;7.80;;;14.00;82.70;;;;;;4959499;28;20047;-86
2021/10/25 14:03:45;;;;;;;12.15;7.60;;;14.00;82.80;;;;;;4958427;28;20058;-84
2021/10/25 14:06:14;;;;;;;13.88;7.82;;;14.10;82.80;;;;;;4956798;28;20051;-85
2021/10/25 14:08:43;;;;;;;10.65;7.30;;;14.10;82.80;;;;;;4957297;28;20053;-84
2021/10/25 14:11:10;;;;;;;14.15;7.53;;;14.10;82.70;;;;;;4959411;28;20051;-85
2021/10/25 14:13:44;;;;;;;12.32;6.88;;;14.20;82.70;;;;;;4959410;28;20051;-85
2021/10/25 14:16:33;;;;;;;11.52;6.63;;;14.30;82.60;;;;;;4959127;28;20047;-87
2021/10/25 14:19:07;;;;;;;13.00;7.20;;;14.30;82.50;;;;;;4958796;28;20129;-88
2021/10/25 14:21:36;;;;;;;10.02;7.13;;;14.30;82.50;;;;;;4959064;28;20042;-86
2021/10/25 14:24:05;;;;;;;10.02;7.38;;;14.30;82.40;;;;;;4955028;28;20138;-88
2021/10/25 14:26:32;;;;;;;9.68;6.38;;;14.40;82.40;;;;;;4957825;28;20134;-86
2021/10/25 14:28:59;;;;;;;9.52;6.25;;;14.40;82.40;;;;;;4960915;28;20052;-86
2021/10/25 14:31:27;;;;;;;10.77;6.25;;;14.40;82.30;;;;;;4958988;28;20062;-86
2021/10/25 14:33:55;;;;;;;10.25;6.72;;;14.40;82.20;;;;;;4958469;28;20054;-86
2021/10/25 14:36:23;;;;;;;10.30;6.20;;;14.40;82.20;;;;;;4957619;28;20046;-86
2021/10/25 14:39:18;;;;;;;11.15;5.85;;;14.40;82.10;;;;;;4955649;28;20054;-87
2021/10/25 14:44:33;;;;;;;8.70;5.47;;;14.40;82.10;;;;;;4958904;28;20102;-86
2021/10/25 14:47:26;;;;;;;9.50;5.63;;;14.40;82.10;;;;;;4957994;28;20052;-84